createdAt,value
2022-12-08T00:01:30.683Z,9.90
2022-12-08T00:03:59.939Z,11.70
2022-12-08T00:06:48.014Z,9.70
2022-12-08T00:09:39.878Z,9.10
2022-12-08T00:12:10.316Z,10.70
2022-12-08T00:14:43.438Z,11.00
2022-12-08T00:17:14.954Z,15.70
2022-12-08T00:19:43.953Z,10.30
2022-12-08T00:22:12.786Z,9.80
2022-12-08T00:24:45.467Z,9.00
2022-12-08T00:27:16.812Z,12.10
2022-12-08T00:29:45.509Z,6.70
2022-12-08T00:32:13.316Z,17.00
2022-12-08T00:34:42.023Z,16.70
2022-12-08T00:37:09.597Z,10.60
2022-12-08T00:39:38.206Z,10.70
2022-12-08T00:42:11.995Z,9.00
2022-12-08T00:44:45.044Z,8.50
2022-12-08T00:47:13.966Z,14.80
2022-12-08T00:49:42.265Z,6.70
2022-12-08T00:52:09.918Z,13.50
2022-12-08T00:54:37.509Z,8.00
2022-12-08T00:57:05.116Z,9.00
2022-12-08T00:59:32.770Z,10.10
2022-12-08T01:02:00.378Z,7.10
2022-12-08T01:04:27.984Z,8.70
2022-12-08T01:06:55.632Z,11.90
2022-12-08T01:09:23.266Z,13.30
2022-12-08T01:11:51.040Z,9.60
2022-12-08T01:14:18.722Z,19.50
2022-12-08T01:16:47.131Z,15.70
2022-12-08T01:19:17.045Z,16.30
2022-12-08T01:21:46.117Z,9.60
2022-12-08T01:24:18.395Z,8.70
2022-12-08T01:26:47.271Z,13.50
2022-12-08T01:29:15.123Z,12.60
2022-12-08T01:31:42.849Z,14.80
2022-12-08T01:34:12.003Z,20.70
2022-12-08T01:36:40.199Z,18.30
2022-12-08T01:39:11.018Z,9.90
2022-12-08T01:41:39.521Z,10.90
2022-12-08T01:44:08.241Z,13.00
2022-12-08T01:46:41.322Z,9.20
2022-12-08T01:49:22.634Z,16.20
2022-12-08T01:52:22.259Z,11.00
2022-12-08T01:55:00.090Z,8.10
2022-12-08T01:57:50.040Z,11.10
2022-12-08T02:00:20.771Z,11.50
2022-12-08T02:03:09.089Z,9.60
2022-12-08T02:05:39.753Z,11.60
2022-12-08T02:08:10.963Z,10.20
2022-12-08T02:10:41.336Z,13.80
2022-12-08T02:13:13.175Z,10.10
2022-12-08T02:15:56.894Z,7.00
2022-12-08T02:18:42.931Z,11.10
2022-12-08T02:21:43.473Z,10.80
2022-12-08T02:24:23.389Z,9.90
2022-12-08T02:27:23.014Z,12.50
2022-12-08T02:30:22.668Z,8.70
2022-12-08T02:33:17.387Z,5.60
2022-12-08T02:35:58.520Z,17.10
2022-12-08T02:38:44.947Z,8.20
2022-12-08T02:41:30.571Z,11.90
2022-12-08T02:44:22.613Z,5.10
2022-12-08T02:47:05.757Z,14.70
2022-12-08T02:49:34.853Z,8.60
2022-12-08T02:52:11.505Z,14.50
2022-12-08T02:54:43.998Z,9.50
2022-12-08T02:57:27.607Z,10.50
2022-12-08T02:59:57.952Z,7.70
2022-12-08T03:02:57.653Z,6.20
2022-12-08T03:05:28.042Z,7.60
2022-12-08T03:08:00.448Z,8.20
2022-12-08T03:10:35.233Z,5.20
2022-12-08T03:13:09.800Z,10.40
2022-12-08T03:15:38.773Z,12.40
2022-12-08T03:18:10.979Z,9.50
2022-12-08T03:20:40.728Z,9.20
2022-12-08T03:23:11.994Z,8.10
2022-12-08T03:25:46.756Z,9.40
2022-12-08T03:28:14.759Z,10.40
2022-12-08T03:30:47.323Z,5.00
2022-12-08T03:33:23.044Z,13.70
2022-12-08T03:35:51.849Z,8.30
2022-12-08T03:38:19.834Z,9.20
2022-12-08T03:41:10.274Z,9.40
2022-12-08T03:43:37.907Z,13.20
2022-12-08T03:46:05.561Z,12.50
2022-12-08T03:48:33.194Z,10.50
2022-12-08T03:51:00.753Z,16.00
2022-12-08T03:53:28.326Z,7.30
2022-12-08T03:55:55.898Z,7.70
2022-12-08T03:58:24.685Z,6.20
2022-12-08T04:00:52.583Z,6.60
2022-12-08T04:03:20.210Z,5.80
2022-12-08T04:05:48.152Z,7.30
2022-12-08T04:08:15.845Z,6.80
2022-12-08T04:10:43.577Z,6.40
2022-12-08T04:13:11.150Z,6.20
2022-12-08T04:15:38.805Z,10.80
2022-12-08T04:18:06.398Z,8.80
2022-12-08T04:20:33.974Z,7.90
2022-12-08T04:23:01.532Z,6.80
2022-12-08T04:25:30.389Z,6.30
2022-12-08T04:27:57.952Z,8.30
2022-12-08T04:30:25.566Z,5.60
2022-12-08T04:32:53.216Z,6.60
2022-12-08T04:35:20.853Z,11.70
2022-12-08T04:37:48.474Z,15.30
2022-12-08T04:40:16.120Z,5.40
2022-12-08T04:42:44.291Z,8.40
2022-12-08T04:45:11.895Z,6.40
2022-12-08T04:47:40.571Z,6.20
2022-12-08T04:50:09.875Z,8.10
2022-12-08T04:52:37.494Z,6.30
2022-12-08T04:55:05.482Z,5.90
2022-12-08T04:57:33.063Z,5.50
2022-12-08T05:00:00.623Z,5.50
2022-12-08T05:02:28.315Z,9.20
2022-12-08T05:04:56.073Z,9.20
2022-12-08T05:07:23.686Z,8.90
2022-12-08T05:09:51.351Z,6.20
2022-12-08T05:12:19.011Z,6.90
2022-12-08T05:14:47.998Z,6.80
2022-12-08T05:17:19.005Z,8.20
2022-12-08T05:19:46.723Z,4.70
2022-12-08T05:22:14.317Z,6.30
2022-12-08T05:24:47.245Z,6.80
2022-12-08T05:27:15.486Z,6.70
2022-12-08T05:29:43.151Z,10.70
2022-12-08T05:32:10.762Z,4.30
2022-12-08T05:34:38.352Z,4.70
2022-12-08T05:37:07.033Z,5.70
2022-12-08T05:39:34.712Z,11.30
2022-12-08T05:42:02.764Z,7.00
2022-12-08T05:44:30.341Z,9.10
2022-12-08T05:46:58.082Z,5.80
2022-12-08T05:49:26.182Z,7.20
2022-12-08T05:51:53.771Z,6.80
2022-12-08T05:54:21.366Z,8.40
2022-12-08T05:56:49.259Z,8.10
2022-12-08T05:59:16.843Z,10.60
2022-12-08T06:01:46.481Z,5.90
2022-12-08T06:04:22.135Z,5.80
2022-12-08T06:06:49.711Z,8.50
2022-12-08T06:09:17.316Z,8.00
2022-12-08T06:11:46.461Z,8.50
2022-12-08T06:14:14.293Z,6.80
2022-12-08T06:16:41.945Z,7.00
2022-12-08T06:19:09.703Z,9.50
2022-12-08T06:21:37.398Z,8.80
2022-12-08T06:24:05.050Z,8.30
2022-12-08T06:26:32.680Z,6.00
2022-12-08T06:29:00.718Z,5.10
2022-12-08T06:31:28.533Z,6.10
2022-12-08T06:33:56.582Z,9.40
2022-12-08T06:36:26.556Z,7.60
2022-12-08T06:38:54.323Z,5.20
2022-12-08T06:41:22.144Z,5.50
2022-12-08T06:43:49.863Z,6.70
2022-12-08T06:46:19.726Z,4.90
2022-12-08T06:48:47.927Z,7.30
2022-12-08T06:51:18.307Z,6.80
2022-12-08T06:53:46.917Z,4.30
2022-12-08T06:56:20.441Z,5.10
2022-12-08T06:58:52.778Z,6.00
2022-12-08T07:01:25.904Z,8.10
2022-12-08T07:03:54.140Z,3.90
2022-12-08T07:06:24.841Z,10.80
2022-12-08T07:08:52.710Z,6.80
2022-12-08T07:11:22.243Z,8.80
2022-12-08T07:13:51.075Z,5.20
2022-12-08T07:16:18.834Z,9.30
2022-12-08T07:18:46.657Z,17.40
2022-12-08T07:21:15.364Z,9.20
2022-12-08T07:23:46.200Z,4.40
2022-12-08T07:26:13.884Z,4.80
2022-12-08T07:28:42.551Z,9.30
2022-12-08T07:31:22.739Z,6.70
2022-12-08T07:33:52.921Z,3.50
2022-12-08T07:36:21.282Z,5.50
2022-12-08T07:38:49.296Z,2.50
2022-12-08T07:41:19.522Z,2.70
2022-12-08T07:43:47.943Z,6.50
2022-12-08T07:46:21.124Z,3.70
2022-12-08T07:51:18.784Z,7.30
2022-12-08T07:53:53.866Z,8.80
2022-12-08T07:56:22.904Z,3.10
2022-12-08T07:58:50.796Z,8.50
2022-12-08T08:01:26.009Z,4.50
2022-12-08T08:03:57.158Z,4.60
2022-12-08T08:06:25.089Z,4.10
2022-12-08T08:08:52.809Z,3.50
2022-12-08T08:11:21.793Z,2.90
2022-12-08T08:13:51.151Z,3.60
2022-12-08T08:16:19.630Z,7.30
2022-12-08T08:18:49.254Z,5.70
2022-12-08T08:24:05.795Z,3.60
2022-12-08T08:26:33.716Z,4.80
2022-12-08T08:29:01.367Z,7.10
2022-12-08T08:31:28.997Z,6.90
2022-12-08T08:33:57.040Z,9.00
2022-12-08T08:36:24.675Z,10.60
2022-12-08T08:38:52.295Z,10.80
2022-12-08T08:41:19.877Z,13.80
2022-12-08T08:43:47.483Z,14.50
2022-12-08T08:46:15.160Z,12.00
2022-12-08T08:48:42.826Z,12.50
2022-12-08T08:51:13.526Z,28.40
2022-12-08T08:53:42.702Z,25.80
2022-12-08T08:56:12.638Z,23.60
2022-12-08T08:58:40.505Z,13.70
2022-12-08T09:01:08.235Z,15.80
2022-12-08T09:03:35.796Z,17.00
2022-12-08T09:06:03.445Z,19.50
2022-12-08T09:08:31.306Z,24.50
2022-12-08T09:10:59.044Z,17.40
2022-12-08T09:13:26.641Z,14.60
2022-12-08T09:15:54.253Z,100.90
2022-12-08T09:18:21.793Z,150.60
2022-12-08T09:20:49.468Z,223.20
2022-12-08T09:23:17.034Z,49.00
2022-12-08T09:25:45.615Z,47.90
2022-12-08T09:28:14.170Z,79.80
2022-12-08T09:30:41.844Z,44.40
2022-12-08T09:33:09.437Z,137.50
2022-12-08T09:35:37.065Z,79.60
2022-12-08T09:38:05.088Z,101.10
2022-12-08T09:40:39.879Z,108.50
2022-12-08T09:43:37.219Z,95.00
2022-12-08T09:46:09.449Z,80.20
2022-12-08T09:48:46.204Z,64.90
2022-12-08T09:51:16.033Z,73.50
2022-12-08T09:53:52.911Z,146.50
2022-12-08T09:56:27.590Z,78.70
2022-12-08T09:59:11.198Z,31.00
2022-12-08T10:01:43.498Z,32.50
2022-12-08T10:04:22.081Z,23.70
2022-12-08T10:07:11.768Z,22.30
2022-12-08T10:10:02.517Z,16.10
2022-12-08T10:12:51.820Z,14.90
2022-12-08T10:15:36.464Z,22.60
2022-12-08T10:18:12.372Z,19.20
2022-12-08T10:20:42.539Z,58.10
2022-12-08T10:23:13.239Z,66.60
2022-12-08T10:25:50.282Z,72.10
2022-12-08T10:28:17.901Z,26.90
2022-12-08T10:30:45.522Z,23.40
2022-12-08T10:33:16.783Z,29.50
2022-12-08T10:35:53.487Z,27.20
2022-12-08T10:38:38.111Z,23.90
2022-12-08T10:41:12.251Z,24.20
2022-12-08T10:43:46.493Z,35.00
2022-12-08T10:46:27.123Z,45.50
2022-12-08T10:49:10.569Z,21.30
2022-12-08T10:51:41.505Z,19.70
2022-12-08T10:54:26.335Z,23.90
2022-12-08T10:56:56.165Z,25.20
2022-12-08T10:59:27.445Z,24.60
2022-12-08T11:01:56.831Z,18.50
2022-12-08T11:04:36.172Z,20.30
2022-12-08T11:07:12.768Z,22.20
2022-12-08T11:09:49.198Z,16.40
2022-12-08T11:12:21.221Z,16.20
2022-12-08T11:15:01.343Z,17.00
2022-12-08T11:17:39.329Z,19.40
2022-12-08T11:20:10.016Z,14.40
2022-12-08T11:22:39.825Z,12.40
2022-12-08T11:25:07.362Z,19.00
2022-12-08T11:27:37.419Z,16.30
2022-12-08T11:30:31.091Z,22.20
2022-12-08T11:33:08.264Z,20.70
2022-12-08T11:35:40.425Z,17.60
2022-12-08T11:38:23.373Z,15.20
2022-12-08T11:41:18.967Z,17.60
2022-12-08T11:43:56.404Z,19.70
2022-12-08T11:46:52.277Z,20.40
2022-12-08T11:49:20.594Z,26.70
2022-12-08T11:51:57.492Z,25.30
2022-12-08T11:54:48.507Z,24.70
2022-12-08T11:57:16.578Z,24.10
2022-12-08T11:59:49.432Z,25.00
2022-12-08T12:02:24.349Z,13.10
2022-12-08T12:05:39.960Z,24.70
2022-12-08T12:08:43.735Z,23.50
2022-12-08T12:11:40.260Z,14.30
2022-12-08T12:14:41.543Z,16.40
2022-12-08T12:18:17.078Z,20.50
2022-12-08T12:21:24.586Z,17.50
2022-12-08T12:23:57.188Z,22.80
2022-12-08T12:26:28.323Z,34.30
2022-12-08T12:29:05.003Z,25.20
2022-12-08T12:31:43.762Z,28.40
2022-12-08T12:34:18.161Z,17.30
2022-12-08T12:37:12.920Z,23.60
2022-12-08T12:39:55.753Z,20.00
2022-12-08T12:42:42.781Z,24.20
2022-12-08T12:45:34.688Z,23.50
2022-12-08T12:48:02.199Z,24.50
2022-12-08T12:50:34.257Z,24.70
2022-12-08T12:53:18.004Z,22.90
2022-12-08T12:55:45.967Z,26.90
2022-12-08T12:58:42.509Z,21.10
2022-12-08T13:01:10.202Z,35.20
2022-12-08T13:03:45.575Z,20.40
2022-12-08T13:06:15.261Z,26.40
2022-12-08T13:08:52.469Z,23.70
2022-12-08T13:11:21.641Z,23.10
2022-12-08T13:14:03.368Z,20.40
2022-12-08T13:16:39.944Z,24.80
2022-12-08T13:19:15.905Z,26.90
2022-12-08T13:21:43.560Z,28.30
2022-12-08T13:24:13.785Z,25.70
2022-12-08T13:27:06.030Z,30.80
2022-12-08T13:29:35.157Z,21.80
2022-12-08T13:32:09.680Z,36.20
2022-12-08T13:34:42.735Z,31.30
2022-12-08T13:37:10.284Z,41.30
2022-12-08T13:39:40.734Z,34.70
2022-12-08T13:42:35.677Z,29.50
2022-12-08T13:45:28.004Z,44.80
2022-12-08T13:48:25.643Z,32.70
2022-12-08T13:59:35.417Z,44.20
2022-12-08T14:02:45.312Z,57.50
2022-12-08T14:05:20.443Z,31.40
2022-12-08T14:07:53.307Z,40.00
2022-12-08T14:10:28.414Z,38.60
2022-12-08T14:13:00.417Z,37.40
2022-12-08T14:15:32.683Z,41.50
2022-12-08T14:18:05.405Z,43.80
2022-12-08T14:20:51.813Z,39.10
2022-12-08T14:23:22.742Z,35.60
2022-12-08T14:25:50.334Z,33.70
2022-12-08T14:28:18.360Z,34.80
2022-12-08T14:30:49.430Z,34.40
2022-12-08T14:33:17.370Z,40.40
2022-12-08T14:35:52.181Z,35.70
2022-12-08T14:38:22.295Z,67.90
2022-12-08T14:41:09.676Z,68.00
2022-12-08T14:43:37.513Z,174.90
2022-12-08T14:46:20.619Z,89.90
2022-12-08T14:48:48.341Z,251.30
2022-12-08T14:51:18.916Z,194.50
2022-12-08T14:53:52.800Z,156.60
2022-12-08T14:56:25.799Z,52.20
2022-12-08T14:59:19.403Z,52.00
2022-12-08T15:01:49.590Z,42.80
2022-12-08T15:04:23.405Z,53.10
2022-12-08T15:07:07.192Z,67.70
2022-12-08T15:09:35.887Z,69.50
2022-12-08T15:12:15.735Z,51.00
2022-12-08T15:15:09.858Z,49.00
2022-12-08T15:18:08.537Z,58.70
2022-12-08T15:20:39.763Z,124.20
2022-12-08T15:23:21.017Z,149.90
2022-12-08T15:25:49.723Z,135.40
2022-12-08T15:28:20.588Z,104.90
2022-12-08T15:30:50.097Z,95.70
2022-12-08T15:33:18.213Z,66.10
2022-12-08T15:35:48.852Z,58.40
2022-12-08T15:38:20.956Z,57.00
2022-12-08T15:40:48.633Z,53.50
2022-12-08T15:43:16.247Z,104.50
2022-12-08T15:45:57.507Z,123.90
2022-12-08T15:48:29.100Z,47.70
2022-12-08T15:50:57.437Z,43.90
2022-12-08T15:53:25.823Z,57.00
2022-12-08T15:58:58.214Z,45.70
2022-12-08T16:01:27.146Z,74.30
2022-12-08T16:09:37.035Z,52.60
2022-12-08T16:12:24.349Z,47.20
2022-12-08T16:17:40.941Z,49.30
2022-12-08T16:20:13.895Z,44.80
2022-12-08T16:23:08.034Z,49.70
2022-12-08T16:25:52.651Z,58.30
2022-12-08T16:28:52.354Z,51.30
2022-12-08T16:31:13.011Z,46.90
2022-12-08T16:33:41.644Z,64.70
2022-12-08T16:36:11.174Z,96.30
2022-12-08T16:38:38.826Z,78.90
2022-12-08T16:41:22.544Z,92.40
2022-12-08T16:43:51.180Z,167.30
2022-12-08T16:46:28.637Z,128.50
2022-12-08T16:48:59.285Z,181.70
2022-12-08T16:51:28.016Z,174.10
2022-12-08T16:53:56.950Z,97.00
2022-12-08T16:56:31.893Z,67.70
2022-12-08T16:59:01.958Z,97.60
2022-12-08T17:01:30.065Z,146.30
2022-12-08T17:04:30.846Z,129.10
2022-12-08T17:06:47.039Z,86.40
2022-12-08T17:09:14.691Z,79.20
2022-12-08T17:11:43.566Z,58.50
2022-12-08T17:14:13.183Z,83.10
2022-12-08T17:16:41.355Z,66.40
2022-12-08T17:19:10.945Z,58.20
2022-12-08T17:21:38.567Z,80.50
2022-12-08T17:24:06.771Z,124.40
2022-12-08T17:26:35.270Z,48.50
2022-12-08T17:29:04.349Z,48.90
2022-12-08T17:31:33.028Z,36.80
2022-12-08T17:34:03.121Z,46.60
2022-12-08T17:36:31.401Z,42.70
2022-12-08T17:39:00.655Z,35.80
2022-12-08T17:41:29.543Z,42.50
2022-12-08T17:43:57.444Z,54.90
2022-12-08T17:46:25.422Z,41.00
2022-12-08T17:48:53.525Z,41.70
2022-12-08T17:51:21.228Z,35.70
2022-12-08T17:53:48.896Z,40.30
2022-12-08T17:56:20.835Z,43.40
2022-12-08T17:58:54.185Z,46.30
2022-12-08T18:01:23.690Z,35.70
2022-12-08T18:03:52.522Z,36.70
2022-12-08T18:06:20.241Z,37.90
2022-12-08T18:08:48.279Z,37.60
2022-12-08T18:11:19.312Z,41.70
2022-12-08T18:13:48.960Z,42.00
2022-12-08T18:16:18.802Z,44.40
2022-12-08T18:18:46.729Z,38.50
2022-12-08T18:21:23.101Z,45.40
2022-12-08T18:23:51.859Z,44.70
2022-12-08T18:26:20.284Z,53.00
2022-12-08T18:28:48.336Z,41.80
2022-12-08T18:31:19.781Z,51.90
2022-12-08T18:33:48.597Z,47.70
2022-12-08T18:36:20.342Z,47.80
2022-12-08T18:38:48.301Z,38.70
2022-12-08T18:41:19.006Z,47.40
2022-12-08T18:43:46.689Z,53.20
2022-12-08T18:46:14.947Z,41.50
2022-12-08T18:48:46.166Z,54.10
2022-12-08T18:51:16.655Z,54.40
2022-12-08T18:53:45.286Z,46.70
2022-12-08T18:56:34.186Z,51.50
2022-12-08T18:59:08.038Z,48.90
2022-12-08T19:01:37.411Z,46.90
2022-12-08T19:06:57.475Z,57.40
2022-12-08T19:09:26.801Z,46.00
2022-12-08T19:11:55.667Z,36.80
2022-12-08T19:14:27.836Z,48.10
2022-12-08T19:17:00.018Z,56.00
2022-12-08T19:19:28.011Z,46.40
2022-12-08T19:21:56.202Z,51.60
2022-12-08T19:24:26.122Z,58.00
2022-12-08T19:26:53.741Z,53.50
2022-12-08T19:29:22.641Z,41.90
2022-12-08T19:31:50.313Z,40.60
2022-12-08T19:34:18.095Z,55.10
2022-12-08T19:36:45.848Z,47.60
2022-12-08T19:39:35.641Z,45.50
2022-12-08T19:42:20.216Z,45.30
2022-12-08T19:44:53.956Z,54.90
2022-12-08T19:47:26.805Z,67.30
2022-12-08T19:50:15.346Z,48.20
2022-12-08T19:52:44.265Z,59.60
2022-12-08T19:55:12.831Z,44.90
2022-12-08T19:57:40.391Z,44.30
2022-12-08T20:00:10.252Z,46.00
2022-12-08T20:02:39.739Z,41.80
2022-12-08T20:05:09.350Z,47.90
2022-12-08T20:07:37.028Z,47.80
2022-12-08T20:10:12.696Z,47.50
2022-12-08T20:12:40.339Z,44.00
2022-12-08T20:15:10.106Z,51.40
2022-12-08T20:17:38.786Z,50.40
2022-12-08T20:20:09.881Z,47.40
2022-12-08T20:22:37.891Z,45.20
2022-12-08T20:25:07.468Z,43.20
2022-12-08T20:27:35.078Z,39.30
2022-12-08T20:30:02.876Z,52.80
2022-12-08T20:32:31.619Z,56.70
2022-12-08T20:34:59.198Z,51.50
2022-12-08T20:37:26.823Z,41.60
2022-12-08T20:39:54.498Z,43.90
2022-12-08T20:42:23.870Z,44.40
2022-12-08T20:44:51.512Z,88.10
2022-12-08T20:47:19.593Z,49.50
2022-12-08T20:49:48.563Z,45.10
2022-12-08T20:52:16.644Z,48.60
2022-12-08T20:54:44.298Z,56.40
2022-12-08T20:57:11.957Z,45.70
2022-12-08T20:59:42.086Z,42.60
2022-12-08T21:02:11.236Z,51.10
2022-12-08T21:04:39.385Z,47.10
2022-12-08T21:07:08.987Z,66.40
2022-12-08T21:09:36.973Z,43.10
2022-12-08T21:12:05.308Z,55.50
2022-12-08T21:14:35.126Z,48.00
2022-12-08T21:17:02.977Z,55.20
2022-12-08T21:19:30.965Z,45.30
2022-12-08T21:21:58.610Z,41.30
2022-12-08T21:24:33.497Z,73.30
2022-12-08T21:27:01.903Z,51.80
2022-12-08T21:29:29.581Z,82.00
2022-12-08T21:31:58.772Z,55.00
2022-12-08T21:34:31.928Z,64.50
2022-12-08T21:37:01.816Z,67.20
2022-12-08T21:39:29.575Z,60.80
2022-12-08T21:42:14.054Z,70.90
2022-12-08T21:44:42.023Z,125.80
2022-12-08T21:47:09.885Z,110.90
2022-12-08T21:49:37.886Z,106.50
2022-12-08T21:52:05.609Z,55.00
2022-12-08T21:54:33.424Z,48.50
2022-12-08T21:57:01.387Z,49.40
2022-12-08T21:59:29.641Z,49.10
2022-12-08T22:01:57.548Z,51.30
2022-12-08T22:04:26.551Z,105.70
2022-12-08T22:06:54.504Z,70.60
2022-12-08T22:09:22.434Z,63.70
2022-12-08T22:11:50.553Z,53.30
2022-12-08T22:14:19.337Z,59.00
2022-12-08T22:16:47.058Z,64.50
2022-12-08T22:19:15.275Z,53.30
2022-12-08T22:21:43.230Z,49.60
2022-12-08T22:24:11.070Z,59.60
2022-12-08T22:26:38.974Z,56.70
2022-12-08T22:29:06.840Z,63.60
2022-12-08T22:31:34.924Z,57.20
2022-12-08T22:34:02.879Z,60.30
2022-12-08T22:36:30.710Z,59.40
2022-12-08T22:38:58.397Z,44.90
2022-12-08T22:41:27.452Z,50.10
2022-12-08T22:43:55.175Z,50.30
2022-12-08T22:46:26.538Z,35.50
2022-12-08T22:48:54.682Z,48.00
2022-12-08T22:51:22.970Z,52.00
2022-12-08T22:53:52.014Z,212.10
2022-12-08T22:56:19.961Z,239.10
2022-12-08T22:58:47.823Z,103.70
2022-12-08T23:01:29.206Z,62.50
2022-12-08T23:03:58.313Z,90.60
2022-12-08T23:06:28.004Z,60.80
2022-12-08T23:08:57.227Z,71.10
2022-12-08T23:11:29.324Z,48.40
2022-12-08T23:14:00.651Z,79.60
2022-12-08T23:16:28.353Z,132.50
2022-12-08T23:18:58.762Z,87.30
2022-12-08T23:21:29.738Z,71.30
2022-12-08T23:23:57.405Z,58.20
2022-12-08T23:26:27.593Z,54.30
2022-12-08T23:29:21.867Z,89.00
2022-12-08T23:31:58.419Z,91.70
2022-12-08T23:34:27.219Z,123.20
2022-12-08T23:36:55.781Z,129.30
2022-12-08T23:39:24.717Z,85.00
2022-12-08T23:41:52.413Z,329.30
2022-12-08T23:44:20.232Z,411.80
2022-12-08T23:46:49.180Z,237.10
2022-12-08T23:49:16.964Z,142.90
2022-12-08T23:51:44.624Z,191.50
2022-12-08T23:54:12.632Z,244.20
2022-12-08T23:56:40.273Z,183.10
2022-12-08T23:59:08.184Z,133.90
